createdAt,value
2022-08-05T00:02:33.940Z,2.78
2022-08-05T00:06:38.173Z,2.70
2022-08-05T00:10:41.254Z,2.47
2022-08-05T00:14:44.424Z,2.58
2022-08-05T00:18:50.891Z,2.55
2022-08-05T00:22:55.284Z,2.55
2022-08-05T00:27:10.559Z,2.53
2022-08-05T00:31:53.064Z,2.47
2022-08-05T00:35:48.014Z,2.60
2022-08-05T00:40:06.165Z,2.78
2022-08-05T00:44:12.984Z,2.17
2022-08-05T00:48:17.787Z,2.60
2022-08-05T00:52:32.237Z,2.50
2022-08-05T00:56:51.621Z,2.47
2022-08-05T01:00:55.427Z,2.58
2022-08-05T01:04:58.509Z,2.38
2022-08-05T01:09:03.555Z,2.55
2022-08-05T01:13:22.301Z,2.42
2022-08-05T01:17:40.114Z,2.40
2022-08-05T01:21:58.295Z,2.78
2022-08-05T01:26:20.896Z,2.38
2022-08-05T01:30:35.728Z,2.58
2022-08-05T01:34:44.934Z,2.42
2022-08-05T01:38:51.023Z,2.72
2022-08-05T01:42:55.958Z,2.50
2022-08-05T01:47:05.231Z,2.85
2022-08-05T01:51:12.551Z,2.88
2022-08-05T01:55:19.475Z,2.63
2022-08-05T01:59:24.784Z,2.67
2022-08-05T02:03:34.507Z,2.50
2022-08-05T02:07:38.358Z,2.88
2022-08-05T02:11:48.197Z,2.80
2022-08-05T02:16:01.909Z,2.72
2022-08-05T02:20:23.028Z,2.42
2022-08-05T02:24:33.775Z,2.40
2022-08-05T02:28:46.046Z,2.78
2022-08-05T02:32:52.516Z,2.30
2022-08-05T02:37:00.793Z,2.25
2022-08-05T02:41:17.148Z,2.25
2022-08-05T02:45:24.159Z,2.83
2022-08-05T02:49:36.424Z,2.40
2022-08-05T02:54:05.188Z,2.50
2022-08-05T02:58:20.178Z,2.58
2022-08-05T03:02:27.789Z,2.25
2022-08-05T03:06:53.819Z,2.60
2022-08-05T03:11:53.554Z,2.35
2022-08-05T03:15:21.201Z,2.35
2022-08-05T03:19:34.488Z,2.80
2022-08-05T03:23:42.529Z,2.60
2022-08-05T03:28:00.128Z,2.55
2022-08-05T03:32:04.860Z,2.78
2022-08-05T03:36:12.368Z,2.83
2022-08-05T03:40:31.330Z,2.50
2022-08-05T03:44:36.996Z,2.78
2022-08-05T03:48:41.397Z,3.03
2022-08-05T03:55:06.890Z,2.83
2022-08-05T03:57:41.306Z,2.40
2022-08-05T04:01:50.815Z,2.47
2022-08-05T04:05:56.108Z,3.10
2022-08-05T04:10:02.924Z,3.03
2022-08-05T04:14:07.422Z,2.78
2022-08-05T04:18:22.415Z,3.03
2022-08-05T04:22:28.747Z,2.65
2022-08-05T04:26:32.366Z,2.58
2022-08-05T04:30:35.796Z,2.70
2022-08-05T04:34:42.933Z,2.67
2022-08-05T04:38:46.942Z,2.40
2022-08-05T04:42:55.268Z,2.67
2022-08-05T04:46:58.934Z,2.70
2022-08-05T04:51:11.613Z,3.45
2022-08-05T04:55:15.457Z,2.95
2022-08-05T04:59:36.648Z,2.58
2022-08-05T05:03:42.734Z,2.78
2022-08-05T05:07:52.951Z,2.72
2022-08-05T05:12:02.836Z,2.80
2022-08-05T05:16:07.269Z,2.90
2022-08-05T05:20:12.521Z,2.90
2022-08-05T05:24:17.714Z,3.03
2022-08-05T05:28:21.530Z,2.78
2022-08-05T05:32:24.831Z,2.80
2022-08-05T05:36:29.752Z,3.10
2022-08-05T05:40:35.200Z,2.83
2022-08-05T05:44:44.424Z,2.65
2022-08-05T05:48:49.241Z,3.10
2022-08-05T05:52:52.422Z,2.83
2022-08-05T05:56:57.062Z,2.35
2022-08-05T06:01:02.444Z,2.60
2022-08-05T06:05:20.447Z,2.63
2022-08-05T06:09:35.385Z,2.40
2022-08-05T06:13:50.645Z,2.45
2022-08-05T06:17:57.388Z,2.88
2022-08-05T06:22:00.485Z,2.70
2022-08-05T06:26:20.771Z,2.50
2022-08-05T06:30:27.328Z,2.97
2022-08-05T06:34:31.360Z,2.83
2022-08-05T06:38:36.114Z,2.92
2022-08-05T06:42:40.389Z,3.22
2022-08-05T06:46:45.224Z,2.90
2022-08-05T06:50:49.959Z,3.13
2022-08-05T06:54:53.409Z,3.10
2022-08-05T06:58:57.132Z,2.97
2022-08-05T07:03:02.067Z,2.88
2022-08-05T07:07:07.807Z,2.80
2022-08-05T07:11:15.394Z,3.13
2022-08-05T07:16:00.809Z,2.88
2022-08-05T07:20:33.015Z,2.95
2022-08-05T07:24:28.533Z,3.10
2022-08-05T07:28:31.873Z,3.10
2022-08-05T07:32:36.870Z,3.00
2022-08-05T07:36:41.377Z,2.85
2022-08-05T07:40:45.493Z,3.20
2022-08-05T07:44:58.856Z,2.70
2022-08-05T07:49:07.944Z,2.67
2022-08-05T07:53:13.331Z,2.50
2022-08-05T07:57:41.499Z,2.90
2022-08-05T08:01:39.513Z,2.60
2022-08-05T08:05:55.173Z,2.88
2022-08-05T08:10:01.081Z,3.10
2022-08-05T08:14:05.080Z,2.88
2022-08-05T08:18:14.245Z,2.53
2022-08-05T08:22:17.625Z,2.55
2022-08-05T08:26:29.728Z,3.03
2022-08-05T08:30:40.876Z,2.63
2022-08-05T08:34:51.518Z,2.67
2022-08-05T08:38:56.026Z,2.63
2022-08-05T08:44:57.902Z,2.15
2022-08-05T08:48:06.433Z,2.55
2022-08-05T08:52:03.487Z,2.75
2022-08-05T08:56:09.733Z,2.83
2022-08-05T09:00:16.495Z,2.40
2022-08-05T09:04:23.255Z,2.60
2022-08-05T09:08:33.926Z,2.70
2022-08-05T09:12:37.191Z,2.70
2022-08-05T09:16:42.064Z,2.33
2022-08-05T09:20:52.363Z,2.60
2022-08-05T09:24:59.834Z,2.75
2022-08-05T09:29:05.991Z,2.22
2022-08-05T09:33:15.313Z,2.58
2022-08-05T09:38:17.302Z,2.60
2022-08-05T09:42:07.872Z,2.13
2022-08-05T09:46:28.048Z,2.60
2022-08-05T09:50:45.217Z,2.60
2022-08-05T09:54:57.173Z,2.90
2022-08-05T09:59:01.814Z,2.40
2022-08-05T10:03:11.437Z,2.42
2022-08-05T10:07:20.009Z,2.55
2022-08-05T10:11:24.363Z,2.60
2022-08-05T10:15:36.431Z,2.40
2022-08-05T10:20:04.400Z,2.50
2022-08-05T10:24:09.212Z,2.40
2022-08-05T10:28:19.120Z,2.47
2022-08-05T10:32:53.684Z,2.35
2022-08-05T10:36:47.309Z,2.45
2022-08-05T10:41:02.038Z,2.50
2022-08-05T10:45:20.843Z,2.60
2022-08-05T10:49:33.254Z,2.60
2022-08-05T10:53:45.387Z,2.38
2022-08-05T10:57:51.366Z,2.60
2022-08-05T11:02:24.267Z,2.50
2022-08-05T11:06:33.488Z,2.70
2022-08-05T11:10:37.664Z,2.70
2022-08-05T11:15:19.186Z,2.45
2022-08-05T11:20:16.720Z,3.20
2022-08-05T11:24:04.857Z,2.67
2022-08-05T11:28:46.119Z,2.70
2022-08-05T11:32:51.252Z,2.90
2022-08-05T11:36:56.165Z,2.97
2022-08-05T11:41:15.444Z,2.90
2022-08-05T11:46:14.598Z,2.75
2022-08-05T11:49:55.913Z,2.97
2022-08-05T11:54:00.751Z,3.00
2022-08-05T11:58:10.454Z,3.05
2022-08-05T12:02:30.701Z,2.75
2022-08-05T12:06:37.301Z,3.20
2022-08-05T12:10:52.986Z,3.65
2022-08-05T12:14:57.044Z,2.60
2022-08-05T12:19:00.274Z,3.15
2022-08-05T12:23:13.474Z,2.78
2022-08-05T12:27:25.091Z,2.90
2022-08-05T12:31:42.472Z,3.33
2022-08-05T12:35:49.518Z,2.60
2022-08-05T12:40:03.678Z,2.83
2022-08-05T12:44:28.494Z,3.05
2022-08-05T12:48:39.828Z,2.92
2022-08-05T12:52:43.288Z,2.95
2022-08-05T12:56:51.489Z,2.90
2022-08-05T13:02:01.085Z,3.25
2022-08-05T13:05:18.154Z,3.28
2022-08-05T13:09:27.977Z,3.00
2022-08-05T13:14:04.608Z,3.60
2022-08-05T13:17:59.289Z,3.20
2022-08-05T13:22:02.814Z,3.33
2022-08-05T13:26:07.380Z,3.08
2022-08-05T13:30:33.987Z,2.88
2022-08-05T13:34:37.982Z,2.58
2022-08-05T13:38:43.982Z,2.55
2022-08-05T13:42:55.683Z,1.90
2022-08-05T13:47:02.512Z,2.00
2022-08-05T13:51:13.765Z,1.75
2022-08-05T13:55:41.762Z,2.30
2022-08-05T13:59:57.209Z,2.60
2022-08-05T14:04:22.044Z,2.00
2022-08-05T14:08:32.609Z,2.00
2022-08-05T14:12:36.262Z,2.10
2022-08-05T14:16:39.517Z,1.90
2022-08-05T14:20:47.892Z,2.10
2022-08-05T14:24:51.281Z,2.50
2022-08-05T14:28:54.547Z,2.08
2022-08-05T14:32:58.959Z,2.20
2022-08-05T14:37:03.459Z,1.80
2022-08-05T14:41:08.172Z,2.05
2022-08-05T14:45:12.344Z,2.00
2022-08-05T14:49:15.674Z,1.80
2022-08-05T14:53:20.424Z,1.70
2022-08-05T14:57:25.002Z,2.10
2022-08-05T15:01:49.914Z,1.80
2022-08-05T15:06:13.575Z,1.77
2022-08-05T15:10:17.773Z,2.00
2022-08-05T15:14:34.943Z,2.10
2022-08-05T15:18:47.048Z,2.25
2022-08-05T15:22:54.104Z,2.10
2022-08-05T15:26:59.488Z,2.20
2022-08-05T15:31:03.611Z,2.10
2022-08-05T15:35:12.471Z,2.38
2022-08-05T15:40:58.965Z,2.20
2022-08-05T15:43:46.066Z,2.25
2022-08-05T15:47:50.184Z,2.50
2022-08-05T15:52:10.105Z,2.08
2022-08-05T15:56:17.452Z,2.35
2022-08-05T16:00:29.283Z,2.17
2022-08-05T16:04:45.509Z,2.20
2022-08-05T16:08:51.132Z,2.22
2022-08-05T16:12:56.636Z,2.45
2022-08-05T16:17:01.352Z,2.45
2022-08-05T16:21:04.992Z,2.53
2022-08-05T16:25:09.968Z,2.40
2022-08-05T16:29:13.246Z,2.53
2022-08-05T16:33:19.151Z,2.10
2022-08-05T16:38:15.303Z,2.53
2022-08-05T16:42:14.339Z,2.10
2022-08-05T16:46:23.567Z,2.50
2022-08-05T16:50:29.573Z,2.90
2022-08-05T16:54:34.722Z,2.20
2022-08-05T16:58:39.035Z,2.40
2022-08-05T17:02:42.754Z,2.17
2022-08-05T17:06:53.001Z,2.42
2022-08-05T17:10:57.094Z,2.42
2022-08-05T17:15:00.178Z,2.40
2022-08-05T17:19:03.673Z,2.45
2022-08-05T17:24:03.597Z,2.40
2022-08-05T17:27:35.736Z,2.47
2022-08-05T17:31:56.704Z,2.35
2022-08-05T17:36:08.982Z,2.40
2022-08-05T17:40:17.222Z,2.60
2022-08-05T17:44:26.751Z,2.53
2022-08-05T17:48:35.753Z,2.63
2022-08-05T17:52:52.787Z,2.40
2022-08-05T17:56:59.366Z,2.60
2022-08-05T18:01:02.984Z,2.67
2022-08-05T18:05:13.716Z,4.30
2022-08-05T18:09:20.295Z,2.78
2022-08-05T18:13:25.737Z,3.00
2022-08-05T18:18:01.504Z,2.80
2022-08-05T18:22:09.670Z,2.75
2022-08-05T18:26:14.963Z,3.00
2022-08-05T18:30:23.527Z,2.80
2022-08-05T18:34:35.062Z,2.90
2022-08-05T18:38:44.708Z,2.53
2022-08-05T18:42:47.824Z,3.20
2022-08-05T18:46:52.376Z,3.17
2022-08-05T18:52:05.876Z,3.15
2022-08-05T18:55:36.229Z,3.22
2022-08-05T18:59:43.961Z,3.30
2022-08-05T19:04:05.337Z,3.40
2022-08-05T19:08:12.244Z,3.20
2022-08-05T19:12:17.698Z,3.40
2022-08-05T19:16:25.341Z,3.83
2022-08-05T19:20:33.793Z,3.45
2022-08-05T19:24:38.428Z,3.45
2022-08-05T19:28:57.777Z,3.42
2022-08-05T19:33:01.063Z,3.42
2022-08-05T19:37:10.015Z,3.60
2022-08-05T19:41:13.387Z,3.40
2022-08-05T19:45:17.429Z,3.65
2022-08-05T19:49:21.644Z,4.07
2022-08-05T19:54:04.498Z,3.47
2022-08-05T19:58:06.673Z,3.92
2022-08-05T20:02:12.790Z,3.85
2022-08-05T20:06:29.368Z,4.20
2022-08-05T20:10:34.224Z,4.25
2022-08-05T20:14:40.005Z,4.00
2022-08-05T20:18:43.104Z,4.28
2022-08-05T20:22:48.312Z,3.83
2022-08-05T20:26:53.896Z,3.60
2022-08-05T20:30:58.828Z,4.45
2022-08-05T20:35:02.420Z,4.03
2022-08-05T20:39:05.773Z,3.72
2022-08-05T20:43:10.968Z,3.92
2022-08-05T20:47:14.887Z,3.63
2022-08-05T20:51:18.328Z,3.20
2022-08-05T20:55:56.717Z,3.30
2022-08-05T21:00:21.339Z,2.95
2022-08-05T21:04:10.669Z,3.10
2022-08-05T21:08:13.929Z,2.70
2022-08-05T21:12:19.420Z,2.97
2022-08-05T21:16:29.407Z,3.05
2022-08-05T21:20:34.344Z,2.75
2022-08-05T21:24:37.444Z,2.55
2022-08-05T21:28:50.562Z,2.72
2022-08-05T21:32:55.678Z,2.70
2022-08-05T21:36:58.811Z,3.03
2022-08-05T21:41:01.837Z,2.83
2022-08-05T21:45:10.838Z,2.80
2022-08-05T21:49:58.883Z,2.63
2022-08-05T21:53:39.001Z,2.60
2022-08-05T21:57:42.704Z,2.83
2022-08-05T22:01:46.037Z,3.30
2022-08-05T22:05:50.868Z,2.28
2022-08-05T22:09:54.311Z,2.60
2022-08-05T22:14:19.778Z,2.75
2022-08-05T22:18:25.782Z,2.70
2022-08-05T22:22:31.257Z,2.58
2022-08-05T22:26:51.917Z,2.38
2022-08-05T22:30:55.958Z,2.45
2022-08-05T22:35:00.500Z,2.42
2022-08-05T22:39:09.587Z,2.88
2022-08-05T22:43:13.388Z,2.83
2022-08-05T22:47:29.812Z,3.00
2022-08-05T22:52:06.360Z,2.50
2022-08-05T22:55:59.350Z,2.50
2022-08-05T23:00:03.034Z,2.50
2022-08-05T23:04:06.455Z,2.72
2022-08-05T23:08:12.364Z,2.63
2022-08-05T23:12:20.344Z,2.72
2022-08-05T23:16:44.039Z,2.80
2022-08-05T23:20:47.245Z,2.40
2022-08-05T23:24:52.497Z,2.45
2022-08-05T23:28:57.200Z,2.55
2022-08-05T23:33:01.982Z,2.70
2022-08-05T23:37:07.027Z,2.78
2022-08-05T23:41:14.505Z,2.70
2022-08-05T23:45:18.913Z,2.70
2022-08-05T23:49:33.763Z,2.80
2022-08-05T23:53:46.698Z,2.63
2022-08-05T23:57:51.194Z,2.58
